createdAt,value
2024-01-08T00:03:10.448Z,-3.50
2024-01-08T00:08:16.631Z,-3.40
2024-01-08T00:19:23.154Z,-3.40
2024-01-08T00:24:33.550Z,-3.30
2024-01-08T00:29:38.769Z,-3.40
2024-01-08T00:34:36.045Z,-3.40
2024-01-08T00:39:40.020Z,-3.40
2024-01-08T00:44:45.529Z,-3.30
2024-01-08T00:49:39.222Z,-3.40
2024-01-08T00:55:45.985Z,-3.50
2024-01-08T01:06:23.187Z,-3.40
2024-01-08T01:11:30.084Z,-3.40
2024-01-08T01:16:35.029Z,-3.40
2024-01-08T01:21:38.972Z,-3.30
2024-01-08T01:26:39.618Z,-3.30
2024-01-08T01:32:16.083Z,-3.40
2024-01-08T01:37:33.146Z,-3.20
2024-01-08T01:42:41.851Z,-3.30
2024-01-08T01:53:17.640Z,-3.40
2024-01-08T02:03:15.202Z,-3.70
2024-01-08T02:09:17.221Z,-3.70
2024-01-08T02:19:45.572Z,-3.90
2024-01-08T02:25:00.958Z,-3.80
2024-01-08T02:30:25.795Z,-4.00
2024-01-08T02:35:40.538Z,-4.10
2024-01-08T02:40:48.622Z,-4.20
2024-01-08T02:46:21.486Z,-4.20
2024-01-08T02:51:26.769Z,-4.20
2024-01-08T02:56:50.158Z,-4.30
2024-01-08T03:02:23.275Z,-4.50
2024-01-08T03:07:27.949Z,-4.80
2024-01-08T03:12:29.777Z,-4.80
2024-01-08T03:18:35.882Z,-4.80
2024-01-08T03:23:12.518Z,-4.90
2024-01-08T03:28:31.684Z,-5.00
2024-01-08T03:33:37.290Z,-5.10
2024-01-08T03:39:13.523Z,-5.10
2024-01-08T03:44:52.255Z,-5.30
2024-01-08T03:50:13.805Z,-5.40
2024-01-08T03:55:26.621Z,-5.50
2024-01-08T04:00:45.131Z,-5.60
2024-01-08T04:06:28.853Z,-5.70
2024-01-08T04:12:02.220Z,-5.70
2024-01-08T04:17:25.108Z,-5.80
2024-01-08T04:22:45.398Z,-5.90
2024-01-08T04:28:17.146Z,-5.90
2024-01-08T04:33:57.722Z,-6.00
2024-01-08T04:39:48.100Z,-6.10
2024-01-08T04:45:20.390Z,-6.30
2024-01-08T04:50:45.294Z,-6.30
2024-01-08T04:56:31.255Z,-6.30
2024-01-08T05:02:08.683Z,-6.50
2024-01-08T05:12:47.929Z,-6.60
2024-01-08T05:18:55.769Z,-6.50
2024-01-08T05:24:17.200Z,-6.50
2024-01-08T05:35:27.683Z,-6.60
2024-01-08T05:40:19.845Z,-6.70
2024-01-08T05:45:41.167Z,-6.70
2024-01-08T05:51:12.251Z,-6.80
2024-01-08T05:56:45.909Z,-6.80
2024-01-08T06:02:21.337Z,-6.80
2024-01-08T06:07:31.847Z,-6.90
2024-01-08T06:12:48.330Z,-6.90
2024-01-08T06:18:05.281Z,-6.90
2024-01-08T06:23:28.229Z,-7.10
2024-01-08T06:28:22.158Z,-7.00
2024-01-08T06:33:36.738Z,-7.00
2024-01-08T06:54:28.844Z,-7.20
2024-01-08T06:59:57.196Z,-7.20
2024-01-08T07:05:38.316Z,-7.20
2024-01-08T07:10:56.285Z,-7.30
2024-01-08T07:16:05.807Z,-7.30
2024-01-08T07:26:44.315Z,-7.30
2024-01-08T07:32:00.317Z,-7.40
2024-01-08T07:37:33.636Z,-7.50
2024-01-08T07:43:02.590Z,-7.50
2024-01-08T07:48:05.518Z,-7.60
2024-01-08T07:58:28.520Z,-7.60
2024-01-08T08:04:02.229Z,-7.60
2024-01-08T08:09:10.132Z,-7.50
2024-01-08T08:14:42.471Z,-7.50
2024-01-08T08:19:45.286Z,-7.60
2024-01-08T08:24:49.263Z,-7.50
2024-01-08T08:30:22.682Z,-7.60
2024-01-08T08:35:16.216Z,-7.50
2024-01-08T08:40:31.080Z,-7.40
2024-01-08T08:46:09.947Z,-7.40
2024-01-08T08:51:15.242Z,-7.30
2024-01-08T08:56:02.107Z,-7.20
2024-01-08T09:01:58.101Z,-7.20
2024-01-08T09:07:27.620Z,-7.10
2024-01-08T09:18:46.050Z,-6.90
2024-01-08T09:23:58.677Z,-6.80
2024-01-08T09:29:19.059Z,-6.80
2024-01-08T09:34:44.917Z,-6.80
2024-01-08T09:40:17.157Z,-6.80
2024-01-08T09:51:01.561Z,-6.60
2024-01-08T09:56:16.755Z,-6.50
2024-01-08T10:01:22.964Z,-6.40
2024-01-08T10:12:48.326Z,-6.30
2024-01-08T10:18:29.741Z,-6.20
2024-01-08T10:23:56.566Z,-6.50
2024-01-08T10:29:17.313Z,-6.70
2024-01-08T10:34:27.765Z,-6.80
2024-01-08T10:40:01.132Z,-7.00
2024-01-08T10:45:58.118Z,-7.30
2024-01-08T10:51:45.690Z,-7.30
2024-01-08T10:57:19.870Z,-7.10
2024-01-08T11:02:45.200Z,-6.80
2024-01-08T11:08:19.162Z,-6.60
2024-01-08T11:13:53.274Z,-6.20
2024-01-08T11:25:49.216Z,-6.00
2024-01-08T11:31:33.625Z,-6.40
2024-01-08T11:37:03.267Z,-6.50
2024-01-08T11:42:56.353Z,-6.50
2024-01-08T11:48:35.989Z,-6.30
2024-01-08T11:59:50.244Z,-6.50
2024-01-08T12:11:01.477Z,-6.40
2024-01-08T12:17:01.895Z,-6.30
2024-01-08T12:28:01.293Z,-6.20
2024-01-08T12:34:37.252Z,-6.10
2024-01-08T12:45:37.044Z,-6.20
2024-01-08T12:57:49.948Z,-6.20
2024-01-08T13:02:59.961Z,-6.00
2024-01-08T13:08:02.023Z,-6.20
2024-01-08T13:13:01.684Z,-6.20
2024-01-08T13:18:27.009Z,-6.10
2024-01-08T13:23:47.155Z,-6.10
2024-01-08T13:29:06.361Z,-6.30
2024-01-08T13:34:46.175Z,-6.20
2024-01-08T13:46:11.240Z,-6.30
2024-01-08T13:51:26.610Z,-6.40
2024-01-08T13:56:53.669Z,-6.30
2024-01-08T14:02:23.356Z,-6.50
2024-01-08T14:19:15.962Z,-6.50
2024-01-08T14:24:50.531Z,-6.50
2024-01-08T14:30:23.111Z,-6.70
2024-01-08T14:35:57.645Z,-6.70
2024-01-08T14:41:23.085Z,-6.90
2024-01-08T14:46:55.928Z,-7.00
2024-01-08T14:58:29.708Z,-7.10
2024-01-08T15:04:00.212Z,-7.10
2024-01-08T15:09:55.756Z,-7.20
2024-01-08T15:15:16.437Z,-7.30
2024-01-08T15:20:38.807Z,-7.30
2024-01-08T15:26:13.184Z,-7.30
2024-01-08T15:32:02.757Z,-7.50
2024-01-08T15:37:05.001Z,-7.50
2024-01-08T15:41:58.184Z,-7.50
2024-01-08T15:47:33.091Z,-7.60
2024-01-08T15:53:02.867Z,-7.60
2024-01-08T15:58:06.774Z,-7.70
2024-01-08T16:03:27.584Z,-7.90
2024-01-08T16:08:47.175Z,-7.90
2024-01-08T16:14:55.157Z,-8.00
2024-01-08T16:19:58.984Z,-8.00
2024-01-08T16:25:38.831Z,-8.00
2024-01-08T16:30:44.763Z,-8.00
2024-01-08T16:36:03.241Z,-8.10
2024-01-08T16:41:34.945Z,-8.10
2024-01-08T16:46:46.310Z,-8.10
2024-01-08T16:52:00.375Z,-8.20
2024-01-08T16:57:06.168Z,-8.30
2024-01-08T17:08:53.798Z,-8.50
2024-01-08T17:20:35.419Z,-8.70
2024-01-08T17:26:07.383Z,-8.80
2024-01-08T17:31:15.865Z,-8.70
2024-01-08T17:36:37.342Z,-8.80
2024-01-08T17:42:30.138Z,-8.90
2024-01-08T17:47:58.098Z,-9.00
2024-01-08T17:53:32.670Z,-9.00
2024-01-08T17:58:30.697Z,-9.00
2024-01-08T18:03:57.544Z,-8.90
2024-01-08T18:09:03.214Z,-9.10
2024-01-08T18:14:21.189Z,-9.10
2024-01-08T18:19:29.012Z,-9.10
2024-01-08T18:24:49.098Z,-9.00
2024-01-08T18:29:41.039Z,-9.00
2024-01-08T18:34:55.475Z,-8.90
2024-01-08T18:39:48.923Z,-9.00
2024-01-08T18:44:47.202Z,-8.80
2024-01-08T18:49:51.025Z,-9.00
2024-01-08T18:54:46.241Z,-9.10
2024-01-08T19:00:02.425Z,-9.30
2024-01-08T19:05:24.218Z,-9.40
2024-01-08T19:10:27.771Z,-9.60
2024-01-08T19:26:27.971Z,-9.30
2024-01-08T19:32:00.873Z,-9.20
2024-01-08T19:36:51.010Z,-9.20
2024-01-08T19:42:07.348Z,-9.40
2024-01-08T19:47:14.436Z,-9.30
2024-01-08T19:52:29.427Z,-9.40
2024-01-08T19:57:52.975Z,-9.40
2024-01-08T20:02:43.043Z,-9.50
2024-01-08T20:07:44.997Z,-9.50
2024-01-08T20:12:36.653Z,-9.60
2024-01-08T20:18:36.940Z,-9.70
2024-01-08T20:23:58.683Z,-9.60
2024-01-08T20:29:20.463Z,-9.70
2024-01-08T20:34:37.123Z,-9.70
2024-01-08T20:40:01.241Z,-9.70
2024-01-08T20:45:10.323Z,-9.60
2024-01-08T20:55:50.508Z,-9.40
2024-01-08T21:01:10.719Z,-9.40
2024-01-08T21:06:25.034Z,-9.30
2024-01-08T21:11:40.310Z,-9.40
2024-01-08T21:16:49.434Z,-9.40
2024-01-08T21:26:57.198Z,-9.30
2024-01-08T21:31:59.946Z,-9.30
2024-01-08T21:37:52.492Z,-9.30
2024-01-08T21:42:56.450Z,-9.20
2024-01-08T21:48:15.070Z,-9.30
2024-01-08T21:53:23.346Z,-9.20
2024-01-08T21:58:14.649Z,-9.30
2024-01-08T22:03:27.415Z,-9.50
2024-01-08T22:08:33.992Z,-9.50
2024-01-08T22:13:39.299Z,-9.50
2024-01-08T22:18:28.138Z,-9.60
2024-01-08T22:23:48.716Z,-9.70
2024-01-08T22:29:24.271Z,-9.60
2024-01-08T22:34:26.610Z,-9.50
2024-01-08T22:39:31.973Z,-9.70
2024-01-08T22:44:40.176Z,-9.70
2024-01-08T22:50:21.104Z,-10.00
2024-01-08T22:55:28.956Z,-10.00
2024-01-08T23:05:53.414Z,-10.10
2024-01-08T23:10:55.228Z,-10.20
2024-01-08T23:16:15.476Z,-10.30
2024-01-08T23:27:00.015Z,-10.20
2024-01-08T23:32:13.717Z,-10.10
2024-01-08T23:37:09.194Z,-10.20
2024-01-08T23:42:27.212Z,-10.20
2024-01-08T23:47:30.542Z,-10.20
2024-01-08T23:53:06.231Z,-10.20
2024-01-08T23:58:28.244Z,-10.10
